createdAt,value
2022-12-03T00:00:22.745Z,15.20
2022-12-03T00:02:50.488Z,17.47
2022-12-03T00:05:18.496Z,16.53
2022-12-03T00:07:46.329Z,17.27
2022-12-03T00:10:15.398Z,12.47
2022-12-03T00:12:43.284Z,14.43
2022-12-03T00:15:12.212Z,12.40
2022-12-03T00:17:39.944Z,12.07
2022-12-03T00:20:09.395Z,13.47
2022-12-03T00:22:36.986Z,11.73
2022-12-03T00:25:05.085Z,12.50
2022-12-03T00:27:34.021Z,13.80
2022-12-03T00:30:01.587Z,12.97
2022-12-03T00:32:29.276Z,14.10
2022-12-03T00:34:56.816Z,14.27
2022-12-03T00:37:24.428Z,12.90
2022-12-03T00:39:52.060Z,10.87
2022-12-03T00:42:19.716Z,12.77
2022-12-03T00:44:48.710Z,12.03
2022-12-03T00:47:16.283Z,10.50
2022-12-03T00:49:43.873Z,10.37
2022-12-03T00:52:11.441Z,13.33
2022-12-03T00:54:39.172Z,12.17
2022-12-03T00:57:06.740Z,12.03
2022-12-03T00:59:34.299Z,11.90
2022-12-03T01:02:03.259Z,13.50
2022-12-03T01:04:31.062Z,12.07
2022-12-03T01:06:58.653Z,12.47
2022-12-03T01:09:26.327Z,14.17
2022-12-03T01:11:53.881Z,12.10
2022-12-03T01:14:21.977Z,11.40
2022-12-03T01:16:49.798Z,12.70
2022-12-03T01:19:19.571Z,13.30
2022-12-03T01:21:49.472Z,11.47
2022-12-03T01:24:17.702Z,13.27
2022-12-03T01:26:45.707Z,13.17
2022-12-03T01:29:13.374Z,12.50
2022-12-03T01:31:58.665Z,13.50
2022-12-03T01:34:28.155Z,12.20
2022-12-03T01:36:55.897Z,14.53
2022-12-03T01:39:23.960Z,12.20
2022-12-03T01:41:53.467Z,14.57
2022-12-03T01:44:24.127Z,11.70
2022-12-03T01:46:53.373Z,12.00
2022-12-03T01:49:23.649Z,14.03
2022-12-03T01:51:53.614Z,12.23
2022-12-03T01:54:26.154Z,13.27
2022-12-03T01:56:54.126Z,13.37
2022-12-03T01:59:29.970Z,13.03
2022-12-03T02:01:57.600Z,10.80
2022-12-03T02:04:25.455Z,15.37
2022-12-03T02:06:54.558Z,13.50
2022-12-03T02:09:22.115Z,13.37
2022-12-03T02:11:51.526Z,15.00
2022-12-03T02:14:21.561Z,15.10
2022-12-03T02:16:49.374Z,13.10
2022-12-03T02:19:25.336Z,14.00
2022-12-03T02:22:01.356Z,13.60
2022-12-03T02:24:39.051Z,15.07
2022-12-03T02:27:08.108Z,14.27
2022-12-03T02:29:35.787Z,12.00
2022-12-03T02:32:03.641Z,15.10
2022-12-03T02:34:36.973Z,12.73
2022-12-03T02:37:06.625Z,12.43
2022-12-03T02:39:37.247Z,13.30
2022-12-03T02:42:23.731Z,15.67
2022-12-03T02:44:53.755Z,11.13
2022-12-03T02:47:23.352Z,14.60
2022-12-03T02:49:51.967Z,12.90
2022-12-03T02:52:20.493Z,13.07
2022-12-03T02:54:48.996Z,12.27
2022-12-03T02:57:17.048Z,14.17
2022-12-03T02:59:46.090Z,12.40
2022-12-03T03:02:15.769Z,13.70
2022-12-03T03:04:43.969Z,14.70
2022-12-03T03:07:11.755Z,15.70
2022-12-03T03:09:39.581Z,14.20
2022-12-03T03:12:07.712Z,13.53
2022-12-03T03:14:35.596Z,13.00
2022-12-03T03:17:03.180Z,14.27
2022-12-03T03:19:32.857Z,14.30
2022-12-03T03:22:00.911Z,12.57
2022-12-03T03:24:28.855Z,12.93
2022-12-03T03:26:56.628Z,13.00
2022-12-03T03:29:24.545Z,11.57
2022-12-03T03:31:52.189Z,13.63
2022-12-03T03:34:19.816Z,11.67
2022-12-03T03:36:48.797Z,11.63
2022-12-03T03:39:16.479Z,11.50
2022-12-03T03:41:47.073Z,12.57
2022-12-03T03:44:15.025Z,12.80
2022-12-03T03:46:43.643Z,10.20
2022-12-03T03:49:11.668Z,11.70
2022-12-03T03:51:39.658Z,12.90
2022-12-03T03:54:09.291Z,13.30
2022-12-03T03:56:36.925Z,12.43
2022-12-03T03:59:05.012Z,12.53
2022-12-03T04:01:33.237Z,11.00
2022-12-03T04:04:01.225Z,11.20
2022-12-03T04:06:29.482Z,10.00
2022-12-03T04:08:57.038Z,12.70
2022-12-03T04:11:43.687Z,10.27
2022-12-03T04:14:11.261Z,12.30
2022-12-03T04:16:38.981Z,11.63
2022-12-03T04:19:06.590Z,8.30
2022-12-03T04:21:54.253Z,11.20
2022-12-03T04:24:21.835Z,11.00
2022-12-03T04:27:08.340Z,12.30
2022-12-03T04:29:35.936Z,11.33
2022-12-03T04:32:21.305Z,11.33
2022-12-03T04:35:06.382Z,11.00
2022-12-03T04:37:33.979Z,12.77
2022-12-03T04:40:01.712Z,11.73
2022-12-03T04:42:30.669Z,11.90
2022-12-03T04:44:58.356Z,10.53
2022-12-03T04:47:25.940Z,8.97
2022-12-03T04:49:53.509Z,10.67
2022-12-03T04:52:22.034Z,10.97
2022-12-03T04:54:49.608Z,11.83
2022-12-03T04:57:17.268Z,11.67
2022-12-03T04:59:46.215Z,9.63
2022-12-03T05:02:13.977Z,10.30
2022-12-03T05:04:41.571Z,13.00
2022-12-03T05:07:09.128Z,10.70
2022-12-03T05:09:36.691Z,11.97
2022-12-03T05:12:04.661Z,10.97
2022-12-03T05:14:32.265Z,10.70
2022-12-03T05:17:01.254Z,10.13
2022-12-03T05:19:42.790Z,12.70
2022-12-03T05:22:10.395Z,10.70
2022-12-03T05:24:38.307Z,8.53
2022-12-03T05:27:05.875Z,10.00
2022-12-03T05:29:33.430Z,11.43
2022-12-03T05:32:02.343Z,13.70
2022-12-03T05:34:29.935Z,12.27
2022-12-03T05:36:57.488Z,11.70
2022-12-03T05:39:26.707Z,10.37
2022-12-03T05:42:11.932Z,11.30
2022-12-03T05:44:39.473Z,11.73
2022-12-03T05:47:08.556Z,12.20
2022-12-03T05:49:36.681Z,10.43
2022-12-03T05:52:04.373Z,12.37
2022-12-03T05:54:31.913Z,11.60
2022-12-03T05:56:59.509Z,12.47
2022-12-03T05:59:27.123Z,12.37
2022-12-03T06:01:54.680Z,9.97
2022-12-03T06:04:23.626Z,12.67
2022-12-03T06:06:51.293Z,12.60
2022-12-03T06:09:18.854Z,12.30
2022-12-03T06:11:46.430Z,13.67
2022-12-03T06:14:14.021Z,11.73
2022-12-03T06:16:41.755Z,15.53
2022-12-03T06:19:09.313Z,11.87
2022-12-03T06:21:38.221Z,10.63
2022-12-03T06:24:06.222Z,13.73
2022-12-03T06:26:33.879Z,16.10
2022-12-03T06:29:01.440Z,11.40
2022-12-03T06:31:29.090Z,12.80
2022-12-03T06:33:56.871Z,11.57
2022-12-03T06:36:24.465Z,12.20
2022-12-03T06:38:53.340Z,13.73
2022-12-03T06:41:21.083Z,11.00
2022-12-03T06:43:48.678Z,15.43
2022-12-03T06:46:16.362Z,14.80
2022-12-03T06:48:44.156Z,14.47
2022-12-03T06:51:11.733Z,15.93
2022-12-03T06:53:39.265Z,15.07
2022-12-03T06:56:08.667Z,13.90
2022-12-03T06:58:36.352Z,14.90
2022-12-03T07:01:03.947Z,14.07
2022-12-03T07:03:31.480Z,16.27
2022-12-03T07:05:59.048Z,14.67
2022-12-03T07:08:27.304Z,18.20
2022-12-03T07:10:55.339Z,15.13
2022-12-03T07:13:24.229Z,17.13
2022-12-03T07:15:52.648Z,14.33
2022-12-03T07:18:20.224Z,15.13
2022-12-03T07:20:47.764Z,14.40
2022-12-03T07:23:15.423Z,16.40
2022-12-03T07:25:42.963Z,14.77
2022-12-03T07:28:10.521Z,17.90
2022-12-03T07:30:39.523Z,17.07
2022-12-03T07:33:07.105Z,14.47
2022-12-03T07:35:34.654Z,17.00
2022-12-03T07:38:02.247Z,14.00
2022-12-03T07:40:29.874Z,15.83
2022-12-03T07:42:57.408Z,15.73
2022-12-03T07:45:26.472Z,16.00
2022-12-03T07:47:55.426Z,15.33
2022-12-03T07:50:22.988Z,16.20
2022-12-03T07:52:50.647Z,14.33
2022-12-03T07:55:18.413Z,16.33
2022-12-03T07:57:45.987Z,14.27
2022-12-03T08:00:15.340Z,16.13
2022-12-03T08:02:43.314Z,16.30
2022-12-03T08:05:12.442Z,14.60
2022-12-03T08:07:40.215Z,15.00
2022-12-03T08:10:13.064Z,13.60
2022-12-03T08:12:40.988Z,17.17
2022-12-03T08:15:13.754Z,14.30
2022-12-03T08:17:42.303Z,14.70
2022-12-03T08:20:16.504Z,15.83
2022-12-03T08:22:45.777Z,15.13
2022-12-03T08:25:20.835Z,16.07
2022-12-03T08:27:48.437Z,15.03
2022-12-03T08:30:17.672Z,13.27
2022-12-03T08:32:45.885Z,14.53
2022-12-03T08:35:19.183Z,14.87
2022-12-03T08:37:46.843Z,14.10
2022-12-03T08:40:24.028Z,14.43
2022-12-03T08:42:51.628Z,13.27
2022-12-03T08:45:35.145Z,14.10
2022-12-03T08:48:06.267Z,15.90
2022-12-03T08:50:40.215Z,14.37
2022-12-03T08:53:24.343Z,13.10
2022-12-03T08:55:54.133Z,13.30
2022-12-03T08:58:23.810Z,13.43
2022-12-03T09:00:55.848Z,14.03
2022-12-03T09:03:23.685Z,13.73
2022-12-03T09:05:52.791Z,15.90
2022-12-03T09:08:20.403Z,17.37
2022-12-03T09:10:48.136Z,14.90
2022-12-03T09:13:15.702Z,14.40
2022-12-03T09:15:43.272Z,15.83
2022-12-03T09:18:10.896Z,15.03
2022-12-03T09:20:38.568Z,14.50
2022-12-03T09:23:08.177Z,13.33
2022-12-03T09:25:35.819Z,14.87
2022-12-03T09:28:03.499Z,14.50
2022-12-03T09:30:31.034Z,14.97
2022-12-03T09:33:00.120Z,14.33
2022-12-03T09:35:28.041Z,16.80
2022-12-03T09:37:56.689Z,17.40
2022-12-03T09:40:25.996Z,15.37
2022-12-03T09:42:53.845Z,14.10
2022-12-03T09:45:21.735Z,15.73
2022-12-03T09:47:50.616Z,17.27
2022-12-03T09:50:23.627Z,13.87
2022-12-03T09:52:54.728Z,16.87
2022-12-03T09:55:26.022Z,16.40
2022-12-03T09:57:54.201Z,18.23
2022-12-03T10:00:23.821Z,15.70
2022-12-03T10:02:53.575Z,17.17
2022-12-03T10:05:23.079Z,14.77
2022-12-03T10:07:53.055Z,16.50
2022-12-03T10:10:25.091Z,16.17
2022-12-03T10:12:54.775Z,15.73
2022-12-03T10:15:24.298Z,16.30
2022-12-03T10:17:54.407Z,17.27
2022-12-03T10:20:24.642Z,15.10
2022-12-03T10:22:52.658Z,16.93
2022-12-03T10:25:22.938Z,15.50
2022-12-03T10:28:00.354Z,16.23
2022-12-03T10:30:29.200Z,18.20
2022-12-03T10:32:58.436Z,15.90
2022-12-03T10:35:36.703Z,17.23
2022-12-03T10:38:05.620Z,15.50
2022-12-03T10:40:35.017Z,18.67
2022-12-03T10:43:21.279Z,18.57
2022-12-03T10:45:51.087Z,16.83
2022-12-03T10:48:20.413Z,18.37
2022-12-03T10:50:52.831Z,17.67
2022-12-03T10:53:22.573Z,15.03
2022-12-03T10:55:52.321Z,16.57
2022-12-03T10:58:24.432Z,18.20
2022-12-03T11:00:54.318Z,18.10
2022-12-03T11:03:24.442Z,19.03
2022-12-03T11:05:53.004Z,18.43
2022-12-03T11:08:23.456Z,16.33
2022-12-03T11:10:59.201Z,14.90
2022-12-03T11:13:55.616Z,15.83
2022-12-03T11:17:09.952Z,16.63
2022-12-03T11:19:49.063Z,15.17
2022-12-03T11:22:25.391Z,16.50
2022-12-03T11:25:26.320Z,19.33
2022-12-03T11:28:35.789Z,17.43
2022-12-03T11:31:11.414Z,18.80
2022-12-03T11:33:43.900Z,17.17
2022-12-03T11:36:31.630Z,18.80
2022-12-03T11:39:04.531Z,16.40
2022-12-03T11:41:35.117Z,16.50
2022-12-03T11:44:30.345Z,19.00
2022-12-03T11:47:13.441Z,17.30
2022-12-03T11:49:48.639Z,18.27
2022-12-03T11:52:23.633Z,18.67
2022-12-03T11:54:54.803Z,16.23
2022-12-03T11:57:33.470Z,17.00
2022-12-03T12:00:11.068Z,17.67
2022-12-03T12:02:44.004Z,17.33
2022-12-03T12:05:17.117Z,19.10
2022-12-03T12:07:47.655Z,19.10
2022-12-03T12:10:35.623Z,17.30
2022-12-03T12:13:03.165Z,16.83
2022-12-03T12:15:35.806Z,19.60
2022-12-03T12:18:35.868Z,16.87
2022-12-03T12:21:41.957Z,17.10
2022-12-03T12:24:28.944Z,18.90
2022-12-03T12:26:57.077Z,17.17
2022-12-03T12:29:24.681Z,18.47
2022-12-03T12:31:58.440Z,18.33
2022-12-03T12:34:27.535Z,15.70
2022-12-03T12:36:56.721Z,19.90
2022-12-03T12:39:24.394Z,17.20
2022-12-03T12:41:52.780Z,17.40
2022-12-03T12:44:23.243Z,18.93
2022-12-03T12:46:53.580Z,16.97
2022-12-03T12:49:26.658Z,16.70
2022-12-03T12:51:55.680Z,16.50
2022-12-03T12:54:23.736Z,16.80
2022-12-03T12:56:51.439Z,18.00
2022-12-03T12:59:20.700Z,15.63
2022-12-03T13:01:50.355Z,19.90
2022-12-03T13:04:21.753Z,17.37
2022-12-03T13:06:50.964Z,16.97
2022-12-03T13:09:22.115Z,20.33
2022-12-03T13:11:54.517Z,19.43
2022-12-03T13:14:24.018Z,17.00
2022-12-03T13:16:53.288Z,16.30
2022-12-03T13:19:24.028Z,16.10
2022-12-03T13:21:53.504Z,18.07
2022-12-03T13:24:32.583Z,17.77
2022-12-03T13:27:03.748Z,17.60
2022-12-03T13:29:33.079Z,17.67
2022-12-03T13:32:10.350Z,17.10
2022-12-03T13:34:37.881Z,15.90
2022-12-03T13:37:13.211Z,19.40
2022-12-03T13:39:47.295Z,17.30
2022-12-03T13:42:39.407Z,17.73
2022-12-03T13:45:36.173Z,19.10
2022-12-03T13:48:14.588Z,20.60
2022-12-03T13:50:44.410Z,18.27
2022-12-03T13:53:20.543Z,20.50
2022-12-03T13:55:52.728Z,18.17
2022-12-03T13:58:20.291Z,17.67
2022-12-03T14:00:49.092Z,17.50
2022-12-03T14:03:17.461Z,17.77
2022-12-03T14:05:44.994Z,19.53
2022-12-03T14:08:12.592Z,18.23
2022-12-03T14:10:40.200Z,17.77
2022-12-03T14:13:09.098Z,17.77
2022-12-03T14:15:37.192Z,17.30
2022-12-03T14:18:04.926Z,18.20
2022-12-03T14:20:34.376Z,16.33
2022-12-03T14:23:01.966Z,19.93
2022-12-03T14:25:29.494Z,20.00
2022-12-03T14:27:57.155Z,16.53
2022-12-03T14:30:26.068Z,17.77
2022-12-03T14:32:53.683Z,19.50
2022-12-03T14:35:21.311Z,17.90
2022-12-03T14:37:48.896Z,18.10
2022-12-03T14:40:21.128Z,16.60
2022-12-03T14:42:49.429Z,16.00
2022-12-03T14:45:17.269Z,16.33
2022-12-03T14:47:46.154Z,18.70
2022-12-03T14:50:14.282Z,19.50
2022-12-03T14:52:43.195Z,18.10
2022-12-03T14:55:10.784Z,18.80
2022-12-03T14:57:38.730Z,16.70
2022-12-03T15:00:07.875Z,16.30
2022-12-03T15:02:35.552Z,18.80
2022-12-03T15:05:04.769Z,19.40
2022-12-03T15:07:32.880Z,20.33
2022-12-03T15:10:00.458Z,18.80
2022-12-03T15:12:27.999Z,18.47
2022-12-03T15:14:55.562Z,19.50
2022-12-03T15:17:30.969Z,19.77
2022-12-03T15:19:59.060Z,18.53
2022-12-03T15:22:27.997Z,17.60
2022-12-03T15:24:55.548Z,19.77
2022-12-03T15:27:23.350Z,17.67
2022-12-03T15:29:51.047Z,18.57
2022-12-03T15:32:18.877Z,15.40
2022-12-03T15:34:46.424Z,17.17
2022-12-03T15:37:14.772Z,18.93
2022-12-03T15:39:48.400Z,20.47
2022-12-03T15:42:16.474Z,18.80
2022-12-03T15:44:46.664Z,19.30
2022-12-03T15:47:14.342Z,21.20
2022-12-03T15:49:41.883Z,20.47
2022-12-03T15:52:09.471Z,18.20
2022-12-03T15:54:37.030Z,17.63
2022-12-03T15:57:06.019Z,19.77
2022-12-03T15:59:33.679Z,19.27
2022-12-03T16:02:01.340Z,18.17
2022-12-03T16:04:28.965Z,19.43
2022-12-03T16:06:56.643Z,18.70
2022-12-03T16:09:27.362Z,17.83
2022-12-03T16:11:55.552Z,19.13
2022-12-03T16:14:24.578Z,18.63
2022-12-03T16:16:52.430Z,20.50
2022-12-03T16:19:20.042Z,18.13
2022-12-03T16:21:47.600Z,19.00
2022-12-03T16:24:15.199Z,18.83
2022-12-03T16:26:42.746Z,17.87
2022-12-03T16:29:10.369Z,19.30
2022-12-03T16:31:39.288Z,20.13
2022-12-03T16:34:07.154Z,19.50
2022-12-03T16:36:34.699Z,19.60
2022-12-03T16:39:02.315Z,16.17
2022-12-03T16:41:30.093Z,20.00
2022-12-03T16:43:57.678Z,20.53
2022-12-03T16:46:26.727Z,21.67
2022-12-03T16:48:57.821Z,18.90
2022-12-03T16:51:26.826Z,19.17
2022-12-03T16:53:54.634Z,18.07
2022-12-03T16:56:22.247Z,20.60
2022-12-03T16:58:49.785Z,17.33
2022-12-03T17:01:17.532Z,20.70
2022-12-03T17:03:45.167Z,19.50
2022-12-03T17:06:14.074Z,16.80
2022-12-03T17:08:47.377Z,20.57
2022-12-03T17:11:16.934Z,21.90
2022-12-03T17:13:44.502Z,18.80
2022-12-03T17:16:12.101Z,21.43
2022-12-03T17:18:39.912Z,17.73
2022-12-03T17:21:07.520Z,17.70
2022-12-03T17:23:36.558Z,16.00
2022-12-03T17:26:04.167Z,20.40
2022-12-03T17:28:31.691Z,19.00
2022-12-03T17:30:59.319Z,18.20
2022-12-03T17:33:26.895Z,17.60
2022-12-03T17:35:54.422Z,18.60
2022-12-03T17:38:22.384Z,17.97
2022-12-03T17:40:51.307Z,16.03
2022-12-03T17:43:19.178Z,18.37
2022-12-03T17:45:46.871Z,16.80
2022-12-03T17:48:14.532Z,18.30
2022-12-03T17:50:42.339Z,15.30
2022-12-03T17:53:10.446Z,16.47
2022-12-03T17:55:44.274Z,17.93
2022-12-03T17:58:15.070Z,17.30
2022-12-03T18:00:43.031Z,16.23
2022-12-03T18:03:12.403Z,17.23
2022-12-03T18:05:40.065Z,17.87
2022-12-03T18:08:07.893Z,17.60
2022-12-03T18:10:35.834Z,16.63
2022-12-03T18:13:03.901Z,18.20
2022-12-03T18:15:36.287Z,15.50
2022-12-03T18:18:04.251Z,14.07
2022-12-03T18:20:32.096Z,14.63
2022-12-03T18:23:00.604Z,15.80
2022-12-03T18:25:28.815Z,17.40
2022-12-03T18:27:56.521Z,14.80
2022-12-03T18:30:24.996Z,15.67
2022-12-03T18:32:54.510Z,14.50
2022-12-03T18:35:22.224Z,16.30
2022-12-03T18:37:50.780Z,15.10
2022-12-03T18:40:20.799Z,15.93
2022-12-03T18:42:48.429Z,16.90
2022-12-03T18:45:17.156Z,18.23
2022-12-03T18:47:45.351Z,15.87
2022-12-03T18:50:14.727Z,16.93
2022-12-03T18:52:42.344Z,17.03
2022-12-03T18:55:17.619Z,17.37
2022-12-03T18:57:45.642Z,19.40
2022-12-03T19:00:15.113Z,19.27
2022-12-03T19:05:32.228Z,18.10
2022-12-03T19:08:00.180Z,19.77
2022-12-03T19:10:27.949Z,16.97
2022-12-03T19:12:55.843Z,16.70
2022-12-03T19:15:26.383Z,17.37
2022-12-03T19:17:57.194Z,17.97
2022-12-03T19:20:25.082Z,17.23
2022-12-03T19:22:53.938Z,19.07
2022-12-03T19:25:21.928Z,16.77
2022-12-03T19:27:50.830Z,16.03
2022-12-03T19:30:18.830Z,16.90
2022-12-03T19:32:46.575Z,17.40
2022-12-03T19:35:14.162Z,17.63
2022-12-03T19:37:41.862Z,16.20
2022-12-03T19:40:11.613Z,15.57
2022-12-03T19:42:39.706Z,15.17
2022-12-03T19:45:08.394Z,16.30
2022-12-03T19:47:36.289Z,18.17
2022-12-03T19:50:04.056Z,17.97
2022-12-03T19:52:31.796Z,21.77
2022-12-03T19:54:59.374Z,21.10
2022-12-03T19:57:29.188Z,18.03
2022-12-03T19:59:57.205Z,17.47
2022-12-03T20:02:25.105Z,17.43
2022-12-03T20:04:52.860Z,18.07
2022-12-03T20:07:20.485Z,17.57
2022-12-03T20:09:50.941Z,17.37
2022-12-03T20:12:18.510Z,17.67
2022-12-03T20:14:47.464Z,18.87
2022-12-03T20:17:15.003Z,16.17
2022-12-03T20:19:42.588Z,18.73
2022-12-03T20:22:10.171Z,19.43
2022-12-03T20:24:37.719Z,16.27
2022-12-03T20:27:05.279Z,18.20
2022-12-03T20:29:32.862Z,17.70
2022-12-03T20:32:01.908Z,17.97
2022-12-03T20:34:29.559Z,17.77
2022-12-03T20:36:57.157Z,20.30
2022-12-03T20:39:24.780Z,18.70
2022-12-03T20:41:52.360Z,19.00
2022-12-03T20:44:20.053Z,17.13
2022-12-03T20:46:47.589Z,15.37
2022-12-03T20:49:16.571Z,16.90
2022-12-03T20:51:44.221Z,14.63
2022-12-03T20:54:11.838Z,17.33
2022-12-03T20:56:41.895Z,17.60
2022-12-03T20:59:12.098Z,17.97
2022-12-03T21:01:40.681Z,21.20
2022-12-03T21:04:09.124Z,19.90
2022-12-03T21:06:38.407Z,16.77
2022-12-03T21:09:07.462Z,16.87
2022-12-03T21:11:35.790Z,16.33
2022-12-03T21:14:04.867Z,17.50
2022-12-03T21:19:23.622Z,18.40
2022-12-03T21:21:56.474Z,17.37
2022-12-03T21:24:24.072Z,16.70
2022-12-03T21:26:51.774Z,16.30
2022-12-03T21:29:19.331Z,17.37
2022-12-03T21:31:47.113Z,18.67
2022-12-03T21:34:14.791Z,16.83
2022-12-03T21:36:42.424Z,18.13
2022-12-03T21:39:11.588Z,17.40
2022-12-03T21:41:39.512Z,16.60
2022-12-03T21:44:07.110Z,17.33
2022-12-03T21:47:09.454Z,19.23
2022-12-03T21:49:22.964Z,16.20
2022-12-03T21:51:50.562Z,14.33
2022-12-03T21:54:20.313Z,14.57
2022-12-03T21:56:47.936Z,18.73
2022-12-03T21:59:15.536Z,17.40
2022-12-03T22:01:47.161Z,15.83
2022-12-03T22:04:15.133Z,15.13
2022-12-03T22:06:42.802Z,17.07
2022-12-03T22:09:10.436Z,18.67
2022-12-03T22:11:39.448Z,17.60
2022-12-03T22:14:09.261Z,15.70
2022-12-03T22:16:36.952Z,19.13
2022-12-03T22:19:06.549Z,18.67
2022-12-03T22:21:35.559Z,17.13
2022-12-03T22:24:03.210Z,17.13
2022-12-03T22:26:31.024Z,19.00
2022-12-03T22:29:00.587Z,18.87
2022-12-03T22:31:28.194Z,17.87
2022-12-03T22:33:55.818Z,15.47
2022-12-03T22:36:23.380Z,17.20
2022-12-03T22:38:51.855Z,18.60
2022-12-03T22:41:20.470Z,15.37
2022-12-03T22:43:48.638Z,16.73
2022-12-03T22:46:18.610Z,18.63
2022-12-03T22:48:47.765Z,17.20
2022-12-03T22:51:16.554Z,18.70
2022-12-03T22:53:44.310Z,19.30
2022-12-03T22:56:12.307Z,17.17
2022-12-03T22:58:41.286Z,18.87
2022-12-03T23:01:09.396Z,18.33
2022-12-03T23:03:38.657Z,17.30
2022-12-03T23:06:11.356Z,19.03
2022-12-03T23:08:39.505Z,17.60
2022-12-03T23:11:07.590Z,18.53
2022-12-03T23:13:35.345Z,14.93
2022-12-03T23:16:03.422Z,18.27
2022-12-03T23:18:31.789Z,18.60
2022-12-03T23:21:00.960Z,18.70
2022-12-03T23:23:29.091Z,18.93
2022-12-03T23:25:58.138Z,18.47
2022-12-03T23:28:27.973Z,16.03
2022-12-03T23:30:56.475Z,17.37
2022-12-03T23:33:24.617Z,20.17
2022-12-03T23:35:52.375Z,19.80
2022-12-03T23:38:21.542Z,19.57
2022-12-03T23:40:49.130Z,17.30
2022-12-03T23:43:17.379Z,20.40
2022-12-03T23:45:45.020Z,19.67
2022-12-03T23:48:12.875Z,19.60
2022-12-03T23:50:41.538Z,17.60
2022-12-03T23:53:09.560Z,16.97
2022-12-03T23:55:41.502Z,16.97
2022-12-03T23:58:09.117Z,18.10
